Detalii statie UNIVERSITATEA AGRICOLA IASI [0000198B]

Toti senzorii

Date Temperatura solului [C]Precipitatii [mm]Voltaj baterie [mV]HC Air temperature [C]HC Relative humidity [%]Punctul de roua [C]
medieminmaxsumaultimamedieminmaxmediemediemin
2018-06-20 10:00:00 22.4 22 22.9 0 7294 26.77 26.02 27.78 100 26.7 26
2018-06-20 11:00:00 23.6 23.1 24 0 7294 28.04 27.12 28.67 100 27.9 27.1
2018-06-20 12:00:00 24.2 24 24.5 0 7294 28.34 27.25 29.14 100 28.2 27.2
2018-06-20 13:00:00 24.9 24.5 25.3 0 7304 29.07 28.59 29.7 100 29 28.5
2018-06-20 14:00:00 25.1 25 25.2 0 7304 28.89 28.15 29.28 100 28.8 28.1
2018-06-20 15:00:00 25 24.9 25.2 0 7304 29 28.58 29.64 100 28.9 28.5
2018-06-20 16:00:00 25.1 24.9 25.2 0 7284 29.26 29.11 29.54 99.6 29.1 28.8
2018-06-20 17:00:00 25.1 24.9 25.3 0 7118 29.03 28.76 29.36 99.23 28.8 28.4
2018-06-20 18:00:00 24.9 24.8 25 0 7284 28.31 27.81 28.83 99.93 28.2 27.8
2018-06-20 19:00:00 24.7 24.5 24.9 0 7284 27.55 26.91 27.98 100 27.5 26.9
2018-06-20 20:00:00 24.3 24 24.6 0 6982 25.55 24.29 26.79 100 25.5 24.2
2018-06-20 21:00:00 23.9 23.8 24.1 0 6952 23.79 23.32 24.2 100 23.7 23.3
2018-06-20 22:00:00 23.6 23.3 24 0 6942 22.7 22.17 23.16 100 22.6 22.1
2018-06-20 23:00:00 23.2 22.9 23.4 0 6922 21.87 20.65 23.07 100 21.8 20.6
2018-06-21 00:00:00 22.8 22.7 23 0 6914 20.06 19.78 20.46 100 20 19.7
2018-06-21 01:00:00 22.4 22.3 22.7 0 6904 19.35 19.02 20.14 100 19.3 19
2018-06-21 02:00:00 22.1 21.9 22.2 0 6904 18.61 18.4 18.82 100 18.5 18.4
2018-06-21 03:00:00 21.8 21.6 22 0 6894 18.27 18.04 18.61 100 18.2 18
2018-06-21 04:00:00 21.5 21.4 21.7 0 6894 17.86 17.54 18.03 100 17.8 17.5
2018-06-21 05:00:00 21.3 21.1 21.5 0 6904 17.68 17.52 17.87 100 17.6 17.5
2018-06-21 06:00:00 21.4 21.2 21.6 0 6982 18.34 17.83 18.74 100 18.3 17.8
2018-06-21 07:00:00 21.6 21.5 21.8 0 7304 20 18.68 21.69 100 19.9 18.6
2018-06-21 08:00:00 21.9 21.8 22.2 0 7314 23.16 21.98 24.15 100 23.1 21.9
2018-06-21 09:00:00 22.5 22.3 22.7 0 7294 25.95 24.85 26.95 100 25.9 24.8
2018-06-21 10:00:00 23.1 22.9 23.7 0 7304 27.56 26.63 28.86 99.9 27.4 26.6
2018-06-21 11:00:00 24.1 23.6 24.7 0 7304 28.82 27.89 29.64 98.16 28.3 27.4
2018-06-21 12:00:00 25 24.6 25.6 0 7294 29.55 29.05 30.11 96.77 28.8 28.1
2018-06-21 13:00:00 25.8 25.5 26.2 0 7294 30.1 29.13 31.08 96.23 29.3 28.1
2018-06-21 14:00:00 26.3 26.1 26.6 0 7294 30.47 29.82 31.93 95.7 29.5 28.4
2018-06-21 15:00:00 26.6 26.5 26.9 0 7304 30.84 30.24 31.35 95.61 29.9 28.8
2018-06-21 16:00:00 26.7 26.6 26.9 0 7176 31.01 30.21 31.87 93.17 29.6 28.6
2018-06-21 17:00:00 26.8 26.8 26.9 0 7080 30.93 30.58 31.3 93.28 29.5 28.8
2018-06-21 18:00:00 26.7 26.4 26.9 0 7060 30.79 29.82 31.37 96.02 29.9 28.8
2018-06-21 19:00:00 26.4 26.3 26.6 0 7284 29.61 29.37 29.85 99.24 29.3 28.8
2018-06-21 20:00:00 25.9 25.6 26.3 0 6952 26.93 25.68 29.27 100 26.8 25.6
2018-06-21 21:00:00 25.3 25.1 25.8 0 6932 24.67 23.62 25.59 100 24.6 23.6
2018-06-21 22:00:00 24.7 24.6 25.1 0 6932 22.83 22.04 23.48 100 22.7 22
2018-06-21 23:00:00 24.2 23.9 24.5 0 6914 21.39 20.49 22.6 100 21.3 20.4
2018-06-22 00:00:00 23.8 23.8 24.1 0 6894 20.57 20 21.43 100 20.5 20
2018-06-22 01:00:00 23.4 23.4 23.6 0 6884 19.83 19.66 20.21 100 19.8 19.6
2018-06-22 02:00:00 23.1 23 23.3 0 6894 19.75 19.34 20.64 100 19.7 19.3
2018-06-22 03:00:00 22.7 22.7 23 0 6894 18.95 18.7 19.1 100 18.9 18.7
2018-06-22 04:00:00 22.4 22.3 22.6 0 6884 18.36 18.04 18.71 100 18.3 18
2018-06-22 05:00:00 22.1 22 22.4 0 6884 18.04 17.73 18.45 100 17.9 17.7
2018-06-22 06:00:00 21.9 21.9 22.1 0 6992 18.34 17.83 19.5 100 18.2 17.8
2018-06-22 07:00:00 22.1 21.9 22.4 0 7304 21.32 19.42 23.19 100 21.2 19.4
2018-06-22 08:00:00 22.5 22.3 22.7 0 7304 24.68 23.12 25.73 100 24.6 23.1
2018-06-22 09:00:00 23 22.7 23.3 0 7304 26.42 25.59 27.24 99.92 26.3 25.5